sensor_id;sensor_type;location;lat;lon;timestamp;P1;durP1;ratioP1;P2;durP2;ratioP2
66380;SDS011;53177;52.648;1.214;2023-03-01T00:00:52;4.95;;;0.80;;
66380;SDS011;53177;52.648;1.214;2023-03-01T00:03:17;4.50;;;0.83;;
66380;SDS011;53177;52.648;1.214;2023-03-01T00:05:46;2.57;;;0.53;;
66380;SDS011;53177;52.648;1.214;2023-03-01T00:08:12;3.33;;;0.75;;
66380;SDS011;53177;52.648;1.214;2023-03-01T00:10:38;3.20;;;0.80;;
66380;SDS011;53177;52.648;1.214;2023-03-01T00:13:04;2.45;;;0.55;;
66380;SDS011;53177;52.648;1.214;2023-03-01T00:15:30;3.08;;;0.50;;
66380;SDS011;53177;52.648;1.214;2023-03-01T00:17:56;2.53;;;0.60;;
66380;SDS011;53177;52.648;1.214;2023-03-01T00:20:22;2.47;;;0.50;;
66380;SDS011;53177;52.648;1.214;2023-03-01T00:22:49;2.72;;;0.65;;
66380;SDS011;53177;52.648;1.214;2023-03-01T00:25:14;2.87;;;0.60;;
66380;SDS011;53177;52.648;1.214;2023-03-01T00:27:40;3.70;;;0.67;;
66380;SDS011;53177;52.648;1.214;2023-03-01T00:30:05;2.90;;;0.60;;
66380;SDS011;53177;52.648;1.214;2023-03-01T00:32:31;3.20;;;0.50;;
66380;SDS011;53177;52.648;1.214;2023-03-01T00:34:57;3.27;;;0.67;;
66380;SDS011;53177;52.648;1.214;2023-03-01T00:37:23;4.53;;;0.70;;
66380;SDS011;53177;52.648;1.214;2023-03-01T00:39:48;3.10;;;0.73;;
66380;SDS011;53177;52.648;1.214;2023-03-01T00:42:14;3.50;;;0.80;;
66380;SDS011;53177;52.648;1.214;2023-03-01T00:44:40;4.50;;;0.57;;
66380;SDS011;53177;52.648;1.214;2023-03-01T00:47:05;3.27;;;0.70;;
66380;SDS011;53177;52.648;1.214;2023-03-01T00:49:31;3.70;;;0.60;;
66380;SDS011;53177;52.648;1.214;2023-03-01T00:51:56;3.40;;;0.70;;
66380;SDS011;53177;52.648;1.214;2023-03-01T00:54:22;3.50;;;0.60;;
66380;SDS011;53177;52.648;1.214;2023-03-01T00:56:47;3.03;;;0.70;;
66380;SDS011;53177;52.648;1.214;2023-03-01T00:59:12;3.77;;;0.70;;
66380;SDS011;53177;52.648;1.214;2023-03-01T01:01:38;3.85;;;0.70;;
66380;SDS011;53177;52.648;1.214;2023-03-01T01:04:08;2.92;;;0.60;;
66380;SDS011;53177;52.648;1.214;2023-03-01T01:06:36;4.57;;;0.80;;
66380;SDS011;53177;52.648;1.214;2023-03-01T01:09:15;5.28;;;0.90;;
66380;SDS011;53177;52.648;1.214;2023-03-01T01:11:46;4.45;;;0.90;;
66380;SDS011;53177;52.648;1.214;2023-03-01T01:14:12;5.05;;;0.77;;
66380;SDS011;53177;52.648;1.214;2023-03-01T01:16:38;5.20;;;0.90;;
66380;SDS011;53177;52.648;1.214;2023-03-01T01:19:03;5.90;;;1.10;;
66380;SDS011;53177;52.648;1.214;2023-03-01T01:21:29;3.72;;;0.95;;
66380;SDS011;53177;52.648;1.214;2023-03-01T01:23:54;5.87;;;1.00;;
66380;SDS011;53177;52.648;1.214;2023-03-01T01:26:21;7.20;;;0.90;;
66380;SDS011;53177;52.648;1.214;2023-03-01T01:28:52;4.93;;;0.80;;
66380;SDS011;53177;52.648;1.214;2023-03-01T01:31:18;5.25;;;1.00;;
66380;SDS011;53177;52.648;1.214;2023-03-01T01:33:43;3.38;;;0.73;;
66380;SDS011;53177;52.648;1.214;2023-03-01T01:36:09;5.73;;;1.23;;
66380;SDS011;53177;52.648;1.214;2023-03-01T01:38:35;5.47;;;1.00;;
66380;SDS011;53177;52.648;1.214;2023-03-01T01:41:02;3.63;;;1.10;;
66380;SDS011;53177;52.648;1.214;2023-03-01T01:43:29;6.68;;;0.80;;
66380;SDS011;53177;52.648;1.214;2023-03-01T01:46:02;4.68;;;1.10;;
66380;SDS011;53177;52.648;1.214;2023-03-01T01:48:39;5.18;;;0.93;;
66380;SDS011;53177;52.648;1.214;2023-03-01T01:51:12;4.43;;;0.90;;
66380;SDS011;53177;52.648;1.214;2023-03-01T01:53:40;6.37;;;1.20;;
66380;SDS011;53177;52.648;1.214;2023-03-01T01:56:09;5.22;;;1.02;;
66380;SDS011;53177;52.648;1.214;2023-03-01T01:58:37;4.70;;;1.10;;
66380;SDS011;53177;52.648;1.214;2023-03-01T02:01:04;6.28;;;1.50;;
66380;SDS011;53177;52.648;1.214;2023-03-01T02:03:31;6.32;;;1.40;;
66380;SDS011;53177;52.648;1.214;2023-03-01T02:06:06;9.37;;;1.60;;
66380;SDS011;53177;52.648;1.214;2023-03-01T02:08:33;4.70;;;1.30;;
66380;SDS011;53177;52.648;1.214;2023-03-01T02:11:02;6.35;;;1.17;;
66380;SDS011;53177;52.648;1.214;2023-03-01T02:13:34;6.95;;;1.35;;
66380;SDS011;53177;52.648;1.214;2023-03-01T02:16:04;8.15;;;1.23;;
66380;SDS011;53177;52.648;1.214;2023-03-01T02:18:38;4.37;;;1.20;;
66380;SDS011;53177;52.648;1.214;2023-03-01T02:24:01;5.80;;;1.40;;
66380;SDS011;53177;52.648;1.214;2023-03-01T02:26:39;5.60;;;1.13;;
66380;SDS011;53177;52.648;1.214;2023-03-01T02:29:07;4.30;;;1.08;;
66380;SDS011;53177;52.648;1.214;2023-03-01T02:31:33;7.33;;;1.23;;
66380;SDS011;53177;52.648;1.214;2023-03-01T02:34:12;5.47;;;0.93;;
66380;SDS011;53177;52.648;1.214;2023-03-01T02:36:44;4.95;;;0.95;;
66380;SDS011;53177;52.648;1.214;2023-03-01T02:39:16;4.70;;;0.90;;
66380;SDS011;53177;52.648;1.214;2023-03-01T02:41:46;3.70;;;0.70;;
66380;SDS011;53177;52.648;1.214;2023-03-01T02:44:15;3.90;;;0.70;;
66380;SDS011;53177;52.648;1.214;2023-03-01T02:46:45;4.68;;;0.60;;
66380;SDS011;53177;52.648;1.214;2023-03-01T02:49:29;2.92;;;0.47;;
66380;SDS011;53177;52.648;1.214;2023-03-01T02:54:51;2.40;;;0.50;;
66380;SDS011;53177;52.648;1.214;2023-03-01T02:57:19;2.33;;;0.40;;
66380;SDS011;53177;52.648;1.214;2023-03-01T02:59:44;3.47;;;0.40;;
66380;SDS011;53177;52.648;1.214;2023-03-01T03:02:20;5.07;;;0.63;;
66380;SDS011;53177;52.648;1.214;2023-03-01T03:05:01;2.25;;;0.50;;
66380;SDS011;53177;52.648;1.214;2023-03-01T03:07:39;3.60;;;0.47;;
66380;SDS011;53177;52.648;1.214;2023-03-01T03:10:08;2.83;;;0.50;;
66380;SDS011;53177;52.648;1.214;2023-03-01T03:12:37;4.13;;;0.60;;
66380;SDS011;53177;52.648;1.214;2023-03-01T03:15:06;4.22;;;0.60;;
66380;SDS011;53177;52.648;1.214;2023-03-01T03:17:37;3.83;;;0.60;;
66380;SDS011;53177;52.648;1.214;2023-03-01T03:20:03;4.23;;;0.70;;
66380;SDS011;53177;52.648;1.214;2023-03-01T03:22:31;4.47;;;0.82;;
66380;SDS011;53177;52.648;1.214;2023-03-01T03:24:59;5.78;;;1.30;;
66380;SDS011;53177;52.648;1.214;2023-03-01T03:27:25;4.25;;;1.00;;
66380;SDS011;53177;52.648;1.214;2023-03-01T03:29:50;5.10;;;1.33;;
66380;SDS011;53177;52.648;1.214;2023-03-01T03:32:15;4.40;;;1.30;;
66380;SDS011;53177;52.648;1.214;2023-03-01T03:34:41;6.17;;;1.50;;
66380;SDS011;53177;52.648;1.214;2023-03-01T03:37:06;7.45;;;1.48;;
66380;SDS011;53177;52.648;1.214;2023-03-01T03:39:51;4.85;;;1.20;;
66380;SDS011;53177;52.648;1.214;2023-03-01T03:42:19;5.65;;;1.30;;
66380;SDS011;53177;52.648;1.214;2023-03-01T03:44:46;6.20;;;1.30;;
66380;SDS011;53177;52.648;1.214;2023-03-01T03:47:11;5.53;;;1.47;;
66380;SDS011;53177;52.648;1.214;2023-03-01T03:49:37;7.13;;;1.60;;
66380;SDS011;53177;52.648;1.214;2023-03-01T03:52:02;4.83;;;1.27;;
66380;SDS011;53177;52.648;1.214;2023-03-01T03:54:27;7.57;;;1.60;;
66380;SDS011;53177;52.648;1.214;2023-03-01T03:56:53;5.78;;;1.40;;
66380;SDS011;53177;52.648;1.214;2023-03-01T03:59:18;8.02;;;1.30;;
66380;SDS011;53177;52.648;1.214;2023-03-01T04:01:44;5.63;;;1.23;;
66380;SDS011;53177;52.648;1.214;2023-03-01T04:04:10;4.30;;;1.17;;
66380;SDS011;53177;52.648;1.214;2023-03-01T04:06:35;6.25;;;1.40;;
66380;SDS011;53177;52.648;1.214;2023-03-01T04:09:00;4.70;;;1.23;;
66380;SDS011;53177;52.648;1.214;2023-03-01T04:11:27;6.95;;;1.50;;
66380;SDS011;53177;52.648;1.214;2023-03-01T04:13:53;5.10;;;1.70;;
66380;SDS011;53177;52.648;1.214;2023-03-01T04:16:21;6.93;;;1.55;;
66380;SDS011;53177;52.648;1.214;2023-03-01T04:18:47;7.57;;;1.60;;
66380;SDS011;53177;52.648;1.214;2023-03-01T04:21:12;4.82;;;1.33;;
66380;SDS011;53177;52.648;1.214;2023-03-01T04:23:38;7.27;;;1.63;;
66380;SDS011;53177;52.648;1.214;2023-03-01T04:26:05;7.22;;;1.60;;
66380;SDS011;53177;52.648;1.214;2023-03-01T04:31:08;5.78;;;1.50;;
66380;SDS011;53177;52.648;1.214;2023-03-01T04:33:45;6.73;;;1.43;;
66380;SDS011;53177;52.648;1.214;2023-03-01T04:36:13;6.35;;;1.90;;
66380;SDS011;53177;52.648;1.214;2023-03-01T04:38:40;7.80;;;1.77;;
66380;SDS011;53177;52.648;1.214;2023-03-01T04:41:07;6.40;;;2.03;;
66380;SDS011;53177;52.648;1.214;2023-03-01T04:43:34;6.30;;;2.22;;
66380;SDS011;53177;52.648;1.214;2023-03-01T04:46:03;8.30;;;2.10;;
66380;SDS011;53177;52.648;1.214;2023-03-01T04:48:31;7.28;;;1.98;;
66380;SDS011;53177;52.648;1.214;2023-03-01T04:51:00;6.88;;;2.20;;
66380;SDS011;53177;52.648;1.214;2023-03-01T04:53:26;8.98;;;2.42;;
66380;SDS011;53177;52.648;1.214;2023-03-01T04:55:53;7.25;;;2.10;;
66380;SDS011;53177;52.648;1.214;2023-03-01T04:58:20;8.27;;;2.20;;
66380;SDS011;53177;52.648;1.214;2023-03-01T05:00:46;9.85;;;2.50;;
66380;SDS011;53177;52.648;1.214;2023-03-01T05:03:11;9.20;;;2.43;;
66380;SDS011;53177;52.648;1.214;2023-03-01T05:05:37;8.07;;;2.23;;
66380;SDS011;53177;52.648;1.214;2023-03-01T05:08:05;9.40;;;2.30;;
66380;SDS011;53177;52.648;1.214;2023-03-01T05:10:32;7.82;;;2.08;;
66380;SDS011;53177;52.648;1.214;2023-03-01T05:13:00;6.67;;;2.23;;
66380;SDS011;53177;52.648;1.214;2023-03-01T05:15:27;8.85;;;2.70;;
66380;SDS011;53177;52.648;1.214;2023-03-01T05:17:54;8.38;;;2.53;;
66380;SDS011;53177;52.648;1.214;2023-03-01T05:20:24;9.50;;;2.33;;
66380;SDS011;53177;52.648;1.214;2023-03-01T05:22:52;10.88;;;2.70;;
66380;SDS011;53177;52.648;1.214;2023-03-01T05:25:21;6.57;;;2.17;;
66380;SDS011;53177;52.648;1.214;2023-03-01T05:27:47;8.80;;;2.38;;
66380;SDS011;53177;52.648;1.214;2023-03-01T05:30:13;12.27;;;2.72;;
66380;SDS011;53177;52.648;1.214;2023-03-01T05:32:44;10.57;;;3.15;;
66380;SDS011;53177;52.648;1.214;2023-03-01T05:35:12;8.43;;;2.57;;
66380;SDS011;53177;52.648;1.214;2023-03-01T05:37:39;9.30;;;2.72;;
66380;SDS011;53177;52.648;1.214;2023-03-01T05:40:14;8.93;;;2.85;;
66380;SDS011;53177;52.648;1.214;2023-03-01T05:42:51;10.88;;;2.95;;
66380;SDS011;53177;52.648;1.214;2023-03-01T05:45:18;9.32;;;2.65;;
66380;SDS011;53177;52.648;1.214;2023-03-01T05:47:45;8.27;;;2.77;;
66380;SDS011;53177;52.648;1.214;2023-03-01T05:50:16;9.32;;;2.67;;
66380;SDS011;53177;52.648;1.214;2023-03-01T05:52:44;10.15;;;3.08;;
66380;SDS011;53177;52.648;1.214;2023-03-01T05:55:10;13.15;;;3.35;;
66380;SDS011;53177;52.648;1.214;2023-03-01T05:57:36;10.17;;;2.87;;
66380;SDS011;53177;52.648;1.214;2023-03-01T06:00:01;9.80;;;2.53;;
66380;SDS011;53177;52.648;1.214;2023-03-01T06:02:28;11.27;;;3.05;;
66380;SDS011;53177;52.648;1.214;2023-03-01T06:04:54;13.07;;;3.10;;
66380;SDS011;53177;52.648;1.214;2023-03-01T06:07:19;13.43;;;3.22;;
66380;SDS011;53177;52.648;1.214;2023-03-01T06:09:45;9.10;;;2.93;;
66380;SDS011;53177;52.648;1.214;2023-03-01T06:12:11;11.67;;;3.50;;
66380;SDS011;53177;52.648;1.214;2023-03-01T06:14:39;12.48;;;3.47;;
66380;SDS011;53177;52.648;1.214;2023-03-01T06:17:07;10.23;;;3.10;;
66380;SDS011;53177;52.648;1.214;2023-03-01T06:19:32;13.60;;;3.83;;
66380;SDS011;53177;52.648;1.214;2023-03-01T06:21:58;13.20;;;3.37;;
66380;SDS011;53177;52.648;1.214;2023-03-01T06:24:26;11.00;;;3.10;;
66380;SDS011;53177;52.648;1.214;2023-03-01T06:26:53;9.90;;;2.85;;
66380;SDS011;53177;52.648;1.214;2023-03-01T06:29:19;14.50;;;3.73;;
66380;SDS011;53177;52.648;1.214;2023-03-01T06:31:44;12.00;;;3.53;;
66380;SDS011;53177;52.648;1.214;2023-03-01T06:34:10;15.30;;;3.70;;
66380;SDS011;53177;52.648;1.214;2023-03-01T06:36:38;12.95;;;3.25;;
66380;SDS011;53177;52.648;1.214;2023-03-01T06:39:04;9.63;;;2.77;;
66380;SDS011;53177;52.648;1.214;2023-03-01T06:41:30;10.95;;;3.15;;
66380;SDS011;53177;52.648;1.214;2023-03-01T06:43:56;11.63;;;3.03;;
66380;SDS011;53177;52.648;1.214;2023-03-01T06:46:21;13.13;;;2.90;;
66380;SDS011;53177;52.648;1.214;2023-03-01T06:48:46;11.70;;;2.97;;
66380;SDS011;53177;52.648;1.214;2023-03-01T06:51:12;8.80;;;2.57;;
66380;SDS011;53177;52.648;1.214;2023-03-01T06:53:37;7.88;;;2.40;;
66380;SDS011;53177;52.648;1.214;2023-03-01T06:56:03;8.50;;;2.20;;
66380;SDS011;53177;52.648;1.214;2023-03-01T06:58:29;9.93;;;2.23;;
66380;SDS011;53177;52.648;1.214;2023-03-01T07:00:54;11.37;;;2.13;;
66380;SDS011;53177;52.648;1.214;2023-03-01T07:03:19;9.05;;;2.42;;
66380;SDS011;53177;52.648;1.214;2023-03-01T07:05:45;8.33;;;2.27;;
66380;SDS011;53177;52.648;1.214;2023-03-01T07:08:13;10.20;;;2.63;;
66380;SDS011;53177;52.648;1.214;2023-03-01T07:10:38;11.53;;;3.10;;
66380;SDS011;53177;52.648;1.214;2023-03-01T07:13:03;9.37;;;2.57;;
66380;SDS011;53177;52.648;1.214;2023-03-01T07:15:31;11.52;;;3.00;;
66380;SDS011;53177;52.648;1.214;2023-03-01T07:17:57;8.60;;;2.40;;
66380;SDS011;53177;52.648;1.214;2023-03-01T07:20:23;8.30;;;2.10;;
66380;SDS011;53177;52.648;1.214;2023-03-01T07:22:51;9.97;;;2.37;;
66380;SDS011;53177;52.648;1.214;2023-03-01T07:25:17;9.27;;;2.03;;
66380;SDS011;53177;52.648;1.214;2023-03-01T07:27:42;7.38;;;1.92;;
66380;SDS011;53177;52.648;1.214;2023-03-01T07:30:08;8.35;;;1.95;;
66380;SDS011;53177;52.648;1.214;2023-03-01T07:32:34;11.67;;;2.00;;
66380;SDS011;53177;52.648;1.214;2023-03-01T07:34:59;13.48;;;2.40;;
66380;SDS011;53177;52.648;1.214;2023-03-01T07:37:25;8.47;;;2.40;;
66380;SDS011;53177;52.648;1.214;2023-03-01T07:39:50;12.40;;;3.00;;
66380;SDS011;53177;52.648;1.214;2023-03-01T07:42:15;6.33;;;1.90;;
66380;SDS011;53177;52.648;1.214;2023-03-01T07:44:41;10.43;;;2.03;;
66380;SDS011;53177;52.648;1.214;2023-03-01T07:47:06;6.50;;;2.00;;
66380;SDS011;53177;52.648;1.214;2023-03-01T07:49:32;7.20;;;1.90;;
66380;SDS011;53177;52.648;1.214;2023-03-01T07:51:57;10.60;;;2.00;;
66380;SDS011;53177;52.648;1.214;2023-03-01T07:54:23;10.00;;;2.33;;
66380;SDS011;53177;52.648;1.214;2023-03-01T07:56:48;7.70;;;1.73;;
66380;SDS011;53177;52.648;1.214;2023-03-01T07:59:14;8.77;;;1.40;;
66380;SDS011;53177;52.648;1.214;2023-03-01T08:01:39;6.43;;;1.60;;
66380;SDS011;53177;52.648;1.214;2023-03-01T08:04:05;5.97;;;1.33;;
66380;SDS011;53177;52.648;1.214;2023-03-01T08:06:33;10.05;;;1.67;;
66380;SDS011;53177;52.648;1.214;2023-03-01T08:08:59;8.77;;;1.55;;
66380;SDS011;53177;52.648;1.214;2023-03-01T08:11:24;6.27;;;1.40;;
66380;SDS011;53177;52.648;1.214;2023-03-01T08:13:50;4.97;;;1.23;;
66380;SDS011;53177;52.648;1.214;2023-03-01T08:16:15;5.97;;;1.20;;
66380;SDS011;53177;52.648;1.214;2023-03-01T08:18:41;6.77;;;1.10;;
66380;SDS011;53177;52.648;1.214;2023-03-01T08:21:09;7.05;;;0.95;;
66380;SDS011;53177;52.648;1.214;2023-03-01T08:23:36;5.50;;;1.23;;
66380;SDS011;53177;52.648;1.214;2023-03-01T08:26:05;7.47;;;1.20;;
66380;SDS011;53177;52.648;1.214;2023-03-01T08:28:33;7.13;;;1.23;;
66380;SDS011;53177;52.648;1.214;2023-03-01T08:30:59;5.13;;;1.57;;
66380;SDS011;53177;52.648;1.214;2023-03-01T08:33:24;6.70;;;1.23;;
66380;SDS011;53177;52.648;1.214;2023-03-01T08:35:50;4.63;;;0.97;;
66380;SDS011;53177;52.648;1.214;2023-03-01T08:38:15;5.97;;;1.10;;
66380;SDS011;53177;52.648;1.214;2023-03-01T08:40:40;7.43;;;1.57;;
66380;SDS011;53177;52.648;1.214;2023-03-01T08:43:06;4.53;;;1.17;;
66380;SDS011;53177;52.648;1.214;2023-03-01T08:45:32;7.25;;;1.33;;
66380;SDS011;53177;52.648;1.214;2023-03-01T08:47:58;7.60;;;1.50;;
66380;SDS011;53177;52.648;1.214;2023-03-01T08:50:24;5.40;;;1.30;;
66380;SDS011;53177;52.648;1.214;2023-03-01T08:52:50;4.90;;;1.33;;
66380;SDS011;53177;52.648;1.214;2023-03-01T08:55:16;11.57;;;1.73;;
66380;SDS011;53177;52.648;1.214;2023-03-01T08:57:42;6.05;;;1.10;;
66380;SDS011;53177;52.648;1.214;2023-03-01T09:00:08;6.13;;;1.40;;
66380;SDS011;53177;52.648;1.214;2023-03-01T09:02:36;6.43;;;1.20;;
66380;SDS011;53177;52.648;1.214;2023-03-01T09:05:01;4.80;;;1.10;;
66380;SDS011;53177;52.648;1.214;2023-03-01T09:07:27;5.60;;;1.03;;
66380;SDS011;53177;52.648;1.214;2023-03-01T09:09:55;6.25;;;1.00;;
66380;SDS011;53177;52.648;1.214;2023-03-01T09:12:21;8.10;;;0.90;;
66380;SDS011;53177;52.648;1.214;2023-03-01T09:14:47;7.10;;;1.00;;
66380;SDS011;53177;52.648;1.214;2023-03-01T09:17:12;7.80;;;0.97;;
66380;SDS011;53177;52.648;1.214;2023-03-01T09:19:37;5.90;;;0.90;;
66380;SDS011;53177;52.648;1.214;2023-03-01T09:22:03;5.38;;;0.90;;
66380;SDS011;53177;52.648;1.214;2023-03-01T09:24:29;7.70;;;1.17;;
66380;SDS011;53177;52.648;1.214;2023-03-01T09:26:55;7.23;;;0.70;;
66380;SDS011;53177;52.648;1.214;2023-03-01T09:29:21;4.40;;;0.77;;
66380;SDS011;53177;52.648;1.214;2023-03-01T09:31:47;7.00;;;0.90;;
66380;SDS011;53177;52.648;1.214;2023-03-01T09:34:12;7.17;;;1.00;;
66380;SDS011;53177;52.648;1.214;2023-03-01T09:36:41;4.68;;;1.00;;
66380;SDS011;53177;52.648;1.214;2023-03-01T09:39:06;6.60;;;1.10;;
66380;SDS011;53177;52.648;1.214;2023-03-01T09:41:49;3.13;;;0.75;;
66380;SDS011;53177;52.648;1.214;2023-03-01T09:44:23;3.67;;;0.77;;
66380;SDS011;53177;52.648;1.214;2023-03-01T09:47:14;5.28;;;0.70;;
66380;SDS011;53177;52.648;1.214;2023-03-01T09:49:43;6.75;;;1.15;;
66380;SDS011;53177;52.648;1.214;2023-03-01T09:52:23;5.15;;;0.80;;
66380;SDS011;53177;52.648;1.214;2023-03-01T09:54:55;6.65;;;0.90;;
66380;SDS011;53177;52.648;1.214;2023-03-01T10:00:42;5.10;;;1.00;;
66380;SDS011;53177;52.648;1.214;2023-03-01T10:03:19;5.95;;;0.98;;
66380;SDS011;53177;52.648;1.214;2023-03-01T10:08:46;5.40;;;1.10;;
66380;SDS011;53177;52.648;1.214;2023-03-01T10:11:32;6.20;;;1.00;;
66380;SDS011;53177;52.648;1.214;2023-03-01T10:16:40;3.42;;;0.82;;
66380;SDS011;53177;52.648;1.214;2023-03-01T10:19:56;3.70;;;0.70;;
66380;SDS011;53177;52.648;1.214;2023-03-01T10:24:53;6.83;;;1.70;;
66380;SDS011;53177;52.648;1.214;2023-03-01T10:27:23;9.25;;;2.53;;
66380;SDS011;53177;52.648;1.214;2023-03-01T10:32:41;5.30;;;0.82;;
66380;SDS011;53177;52.648;1.214;2023-03-01T10:38:03;3.60;;;0.60;;
66380;SDS011;53177;52.648;1.214;2023-03-01T10:40:32;4.70;;;0.85;;
66380;SDS011;53177;52.648;1.214;2023-03-01T10:43:00;3.40;;;0.70;;
66380;SDS011;53177;52.648;1.214;2023-03-01T10:45:33;2.80;;;0.68;;
66380;SDS011;53177;52.648;1.214;2023-03-01T10:48:13;4.70;;;0.40;;
66380;SDS011;53177;52.648;1.214;2023-03-01T10:50:51;2.93;;;0.40;;
66380;SDS011;53177;52.648;1.214;2023-03-01T10:56:11;2.50;;;0.50;;
66380;SDS011;53177;52.648;1.214;2023-03-01T11:06:30;4.03;;;0.60;;
66380;SDS011;53177;52.648;1.214;2023-03-01T11:08:55;3.80;;;0.67;;
66380;SDS011;53177;52.648;1.214;2023-03-01T11:11:31;3.33;;;0.52;;
66380;SDS011;53177;52.648;1.214;2023-03-01T11:13:59;4.70;;;0.55;;
66380;SDS011;53177;52.648;1.214;2023-03-01T11:16:39;3.75;;;0.82;;
66380;SDS011;53177;52.648;1.214;2023-03-01T11:21:42;4.43;;;0.90;;
66380;SDS011;53177;52.648;1.214;2023-03-01T11:24:13;3.25;;;0.70;;
66380;SDS011;53177;52.648;1.214;2023-03-01T11:26:42;4.07;;;0.60;;
66380;SDS011;53177;52.648;1.214;2023-03-01T11:29:23;3.15;;;0.50;;
66380;SDS011;53177;52.648;1.214;2023-03-01T11:31:56;5.73;;;0.70;;
66380;SDS011;53177;52.648;1.214;2023-03-01T11:34:28;4.15;;;0.55;;
66380;SDS011;53177;52.648;1.214;2023-03-01T11:37:08;2.90;;;0.63;;
66380;SDS011;53177;52.648;1.214;2023-03-01T11:42:48;5.68;;;0.75;;
66380;SDS011;53177;52.648;1.214;2023-03-01T11:45:19;2.40;;;0.40;;
66380;SDS011;53177;52.648;1.214;2023-03-01T11:50:51;3.28;;;0.57;;
66380;SDS011;53177;52.648;1.214;2023-03-01T12:01:06;4.63;;;1.00;;
66380;SDS011;53177;52.648;1.214;2023-03-01T12:17:39;2.70;;;0.57;;
66380;SDS011;53177;52.648;1.214;2023-03-01T12:23:02;3.55;;;0.50;;
66380;SDS011;53177;52.648;1.214;2023-03-01T12:28:38;4.45;;;0.60;;
66380;SDS011;53177;52.648;1.214;2023-03-01T12:36:45;2.53;;;0.35;;
66380;SDS011;53177;52.648;1.214;2023-03-01T12:45:24;1.60;;;0.20;;
66380;SDS011;53177;52.648;1.214;2023-03-01T12:50:42;1.92;;;0.30;;
66380;SDS011;53177;52.648;1.214;2023-03-01T12:53:21;2.40;;;0.60;;
66380;SDS011;53177;52.648;1.214;2023-03-01T12:55:50;1.75;;;0.30;;
66380;SDS011;53177;52.648;1.214;2023-03-01T13:06:42;1.67;;;0.30;;
66380;SDS011;53177;52.648;1.214;2023-03-01T13:11:58;1.63;;;0.30;;
66380;SDS011;53177;52.648;1.214;2023-03-01T13:16:52;0.93;;;0.20;;
66380;SDS011;53177;52.648;1.214;2023-03-01T13:19:20;1.55;;;0.20;;
66380;SDS011;53177;52.648;1.214;2023-03-01T13:21:49;2.00;;;0.32;;
66380;SDS011;53177;52.648;1.214;2023-03-01T13:29:30;2.33;;;0.30;;
66380;SDS011;53177;52.648;1.214;2023-03-01T13:32:17;1.75;;;0.20;;
66380;SDS011;53177;52.648;1.214;2023-03-01T13:37:41;2.20;;;0.47;;
66380;SDS011;53177;52.648;1.214;2023-03-01T13:40:57;1.95;;;0.32;;
66380;SDS011;53177;52.648;1.214;2023-03-01T13:42:53;2.75;;;0.50;;
66380;SDS011;53177;52.648;1.214;2023-03-01T13:45:34;2.58;;;0.50;;
66380;SDS011;53177;52.648;1.214;2023-03-01T13:48:25;4.00;;;0.50;;
66380;SDS011;53177;52.648;1.214;2023-03-01T13:50:58;3.05;;;0.50;;
66380;SDS011;53177;52.648;1.214;2023-03-01T13:53:26;1.80;;;0.40;;
66380;SDS011;53177;52.648;1.214;2023-03-01T13:56:00;2.40;;;0.40;;
66380;SDS011;53177;52.648;1.214;2023-03-01T13:58:32;2.88;;;0.50;;
66380;SDS011;53177;52.648;1.214;2023-03-01T14:01:18;2.73;;;0.57;;
66380;SDS011;53177;52.648;1.214;2023-03-01T14:03:47;2.20;;;0.40;;
66380;SDS011;53177;52.648;1.214;2023-03-01T14:06:14;2.87;;;0.50;;
66380;SDS011;53177;52.648;1.214;2023-03-01T14:08:43;2.33;;;0.40;;
66380;SDS011;53177;52.648;1.214;2023-03-01T14:14:03;2.40;;;0.40;;
66380;SDS011;53177;52.648;1.214;2023-03-01T14:19:17;2.10;;;0.30;;
66380;SDS011;53177;52.648;1.214;2023-03-01T14:22:01;2.28;;;0.30;;
66380;SDS011;53177;52.648;1.214;2023-03-01T14:24:49;3.50;;;0.35;;
66380;SDS011;53177;52.648;1.214;2023-03-01T14:27:23;2.58;;;0.40;;
66380;SDS011;53177;52.648;1.214;2023-03-01T14:29:56;2.58;;;0.47;;
66380;SDS011;53177;52.648;1.214;2023-03-01T14:32:27;2.93;;;0.33;;
66380;SDS011;53177;52.648;1.214;2023-03-01T14:34:55;2.60;;;0.50;;
66380;SDS011;53177;52.648;1.214;2023-03-01T14:37:34;3.28;;;0.40;;
66380;SDS011;53177;52.648;1.214;2023-03-01T14:40:00;3.13;;;0.40;;
66380;SDS011;53177;52.648;1.214;2023-03-01T14:42:28;4.05;;;0.30;;
66380;SDS011;53177;52.648;1.214;2023-03-01T14:44:59;2.33;;;0.40;;
66380;SDS011;53177;52.648;1.214;2023-03-01T14:47:31;4.47;;;0.40;;
66380;SDS011;53177;52.648;1.214;2023-03-01T14:50:01;2.08;;;0.28;;
66380;SDS011;53177;52.648;1.214;2023-03-01T14:52:37;2.90;;;0.30;;
66380;SDS011;53177;52.648;1.214;2023-03-01T14:55:07;1.33;;;0.30;;
66380;SDS011;53177;52.648;1.214;2023-03-01T14:57:45;2.13;;;0.37;;
66380;SDS011;53177;52.648;1.214;2023-03-01T15:00:24;4.07;;;0.40;;
66380;SDS011;53177;52.648;1.214;2023-03-01T15:02:55;2.10;;;0.40;;
66380;SDS011;53177;52.648;1.214;2023-03-01T15:07:49;2.08;;;0.30;;
66380;SDS011;53177;52.648;1.214;2023-03-01T15:10:23;0.87;;;0.10;;
66380;SDS011;53177;52.648;1.214;2023-03-01T15:12:53;1.80;;;0.32;;
66380;SDS011;53177;52.648;1.214;2023-03-01T15:15:19;2.22;;;0.40;;
66380;SDS011;53177;52.648;1.214;2023-03-01T15:17:55;4.10;;;0.47;;
66380;SDS011;53177;52.648;1.214;2023-03-01T15:20:24;2.90;;;0.50;;
66380;SDS011;53177;52.648;1.214;2023-03-01T15:22:54;2.08;;;0.30;;
66380;SDS011;53177;52.648;1.214;2023-03-01T15:25:25;2.35;;;0.20;;
66380;SDS011;53177;52.648;1.214;2023-03-01T15:27:53;1.52;;;0.20;;
66380;SDS011;53177;52.648;1.214;2023-03-01T15:30:21;2.10;;;0.30;;
66380;SDS011;53177;52.648;1.214;2023-03-01T15:35:49;2.78;;;0.50;;
66380;SDS011;53177;52.648;1.214;2023-03-01T15:41:47;2.00;;;0.32;;
66380;SDS011;53177;52.648;1.214;2023-03-01T15:44:26;1.50;;;0.20;;
66380;SDS011;53177;52.648;1.214;2023-03-01T15:46:54;2.20;;;0.63;;
66380;SDS011;53177;52.648;1.214;2023-03-01T15:51:45;1.87;;;0.30;;
66380;SDS011;53177;52.648;1.214;2023-03-01T15:54:21;2.57;;;0.30;;
66380;SDS011;53177;52.648;1.214;2023-03-01T15:56:48;3.70;;;0.40;;
66380;SDS011;53177;52.648;1.214;2023-03-01T15:59:15;2.83;;;0.40;;
66380;SDS011;53177;52.648;1.214;2023-03-01T16:01:41;2.43;;;0.30;;
66380;SDS011;53177;52.648;1.214;2023-03-01T16:04:09;3.70;;;0.40;;
66380;SDS011;53177;52.648;1.214;2023-03-01T16:06:38;1.67;;;0.30;;
66380;SDS011;53177;52.648;1.214;2023-03-01T16:09:04;1.93;;;0.40;;
66380;SDS011;53177;52.648;1.214;2023-03-01T16:11:29;4.28;;;0.65;;
66380;SDS011;53177;52.648;1.214;2023-03-01T16:13:56;3.30;;;0.40;;
66380;SDS011;53177;52.648;1.214;2023-03-01T16:16:21;2.67;;;0.40;;
66380;SDS011;53177;52.648;1.214;2023-03-01T16:18:47;2.92;;;0.40;;
66380;SDS011;53177;52.648;1.214;2023-03-01T16:21:18;5.18;;;0.93;;
66380;SDS011;53177;52.648;1.214;2023-03-01T16:23:46;4.07;;;0.50;;
66380;SDS011;53177;52.648;1.214;2023-03-01T16:26:11;5.72;;;0.60;;
66380;SDS011;53177;52.648;1.214;2023-03-01T16:28:38;5.47;;;0.60;;
66380;SDS011;53177;52.648;1.214;2023-03-01T16:31:04;3.17;;;0.50;;
66380;SDS011;53177;52.648;1.214;2023-03-01T16:33:30;3.80;;;0.73;;
66380;SDS011;53177;52.648;1.214;2023-03-01T16:35:56;2.60;;;0.63;;
66380;SDS011;53177;52.648;1.214;2023-03-01T16:38:21;3.60;;;0.77;;
66380;SDS011;53177;52.648;1.214;2023-03-01T16:40:48;5.47;;;0.68;;
66380;SDS011;53177;52.648;1.214;2023-03-01T16:43:15;4.65;;;0.70;;
66380;SDS011;53177;52.648;1.214;2023-03-01T16:45:40;4.23;;;0.60;;
66380;SDS011;53177;52.648;1.214;2023-03-01T16:48:09;5.13;;;0.70;;
66380;SDS011;53177;52.648;1.214;2023-03-01T16:50:35;3.45;;;0.50;;
66380;SDS011;53177;52.648;1.214;2023-03-01T16:53:00;3.90;;;0.60;;
66380;SDS011;53177;52.648;1.214;2023-03-01T16:55:25;3.17;;;0.60;;
66380;SDS011;53177;52.648;1.214;2023-03-01T16:57:51;3.40;;;0.70;;
66380;SDS011;53177;52.648;1.214;2023-03-01T17:00:21;3.33;;;0.45;;